sensor_id;sensor_type;location;lat;lon;timestamp;temperature;humidity
81222;DHT22;70691;52.492;13.420;2023-11-18T00:01:44;7.90;67.40
81222;DHT22;70691;52.492;13.420;2023-11-18T00:04:10;8.10;67.30
81222;DHT22;70691;52.492;13.420;2023-11-18T00:06:41;8.10;67.30
81222;DHT22;70691;52.492;13.420;2023-11-18T00:09:13;8.10;66.60
81222;DHT22;70691;52.492;13.420;2023-11-18T00:11:42;8.30;66.40
81222;DHT22;70691;52.492;13.420;2023-11-18T00:14:08;8.30;65.80
81222;DHT22;70691;52.492;13.420;2023-11-18T00:16:35;8.30;65.80
81222;DHT22;70691;52.492;13.420;2023-11-18T00:19:02;8.20;66.00
81222;DHT22;70691;52.492;13.420;2023-11-18T00:21:30;8.00;67.10
81222;DHT22;70691;52.492;13.420;2023-11-18T00:23:56;8.00;67.30
81222;DHT22;70691;52.492;13.420;2023-11-18T00:26:22;8.00;67.30
81222;DHT22;70691;52.492;13.420;2023-11-18T00:28:48;7.90;67.40
81222;DHT22;70691;52.492;13.420;2023-11-18T00:31:16;8.10;66.60
81222;DHT22;70691;52.492;13.420;2023-11-18T00:33:41;8.00;67.20
81222;DHT22;70691;52.492;13.420;2023-11-18T00:36:07;8.00;67.00
81222;DHT22;70691;52.492;13.420;2023-11-18T00:38:33;8.00;67.00
81222;DHT22;70691;52.492;13.420;2023-11-18T00:40:58;8.00;67.40
81222;DHT22;70691;52.492;13.420;2023-11-18T00:43:25;8.10;66.20
81222;DHT22;70691;52.492;13.420;2023-11-18T00:45:51;8.00;67.00
81222;DHT22;70691;52.492;13.420;2023-11-18T00:48:17;8.20;66.00
81222;DHT22;70691;52.492;13.420;2023-11-18T00:50:42;8.00;67.10
81222;DHT22;70691;52.492;13.420;2023-11-18T00:53:08;7.90;67.60
81222;DHT22;70691;52.492;13.420;2023-11-18T00:55:35;7.90;67.40
81222;DHT22;70691;52.492;13.420;2023-11-18T00:58:01;7.90;67.60
81222;DHT22;70691;52.492;13.420;2023-11-18T01:00:26;7.90;67.20
81222;DHT22;70691;52.492;13.420;2023-11-18T01:02:53;8.00;66.70
81222;DHT22;70691;52.492;13.420;2023-11-18T01:05:20;8.10;66.40
81222;DHT22;70691;52.492;13.420;2023-11-18T01:07:46;8.10;66.80
81222;DHT22;70691;52.492;13.420;2023-11-18T01:10:12;8.10;66.90
81222;DHT22;70691;52.492;13.420;2023-11-18T01:12:39;8.00;66.90
81222;DHT22;70691;52.492;13.420;2023-11-18T01:15:05;8.20;67.40
81222;DHT22;70691;52.492;13.420;2023-11-18T01:17:33;8.20;66.20
81222;DHT22;70691;52.492;13.420;2023-11-18T01:19:58;8.20;66.10
81222;DHT22;70691;52.492;13.420;2023-11-18T01:22:42;8.30;66.20
81222;DHT22;70691;52.492;13.420;2023-11-18T01:25:16;8.30;65.50
81222;DHT22;70691;52.492;13.420;2023-11-18T01:27:45;8.40;65.10
81222;DHT22;70691;52.492;13.420;2023-11-18T01:30:13;8.30;65.70
81222;DHT22;70691;52.492;13.420;2023-11-18T01:32:39;8.40;65.00
81222;DHT22;70691;52.492;13.420;2023-11-18T01:35:08;8.30;65.40
81222;DHT22;70691;52.492;13.420;2023-11-18T01:40:56;8.30;65.20
81222;DHT22;70691;52.492;13.420;2023-11-18T01:43:22;8.20;65.70
81222;DHT22;70691;52.492;13.420;2023-11-18T01:45:48;8.10;66.20
81222;DHT22;70691;52.492;13.420;2023-11-18T01:48:14;8.00;66.90
81222;DHT22;70691;52.492;13.420;2023-11-18T01:50:41;8.00;66.50
81222;DHT22;70691;52.492;13.420;2023-11-18T01:53:08;8.10;66.50
81222;DHT22;70691;52.492;13.420;2023-11-18T01:55:35;8.10;66.00
81222;DHT22;70691;52.492;13.420;2023-11-18T01:58:02;8.00;66.50
81222;DHT22;70691;52.492;13.420;2023-11-18T02:00:35;8.00;66.90
81222;DHT22;70691;52.492;13.420;2023-11-18T02:03:04;7.90;67.60
81222;DHT22;70691;52.492;13.420;2023-11-18T02:05:31;7.90;67.60
81222;DHT22;70691;52.492;13.420;2023-11-18T02:07:59;7.90;67.40
81222;DHT22;70691;52.492;13.420;2023-11-18T02:10:26;8.00;66.70
81222;DHT22;70691;52.492;13.420;2023-11-18T02:13:06;8.10;67.00
81222;DHT22;70691;52.492;13.420;2023-11-18T02:15:34;8.10;67.10
81222;DHT22;70691;52.492;13.420;2023-11-18T02:18:02;8.20;66.70
81222;DHT22;70691;52.492;13.420;2023-11-18T02:20:29;8.10;66.30
81222;DHT22;70691;52.492;13.420;2023-11-18T02:22:55;8.20;65.70
81222;DHT22;70691;52.492;13.420;2023-11-18T02:25:24;8.20;65.80
81222;DHT22;70691;52.492;13.420;2023-11-18T02:27:52;8.10;66.10
81222;DHT22;70691;52.492;13.420;2023-11-18T02:30:19;8.00;66.80
81222;DHT22;70691;52.492;13.420;2023-11-18T02:35:54;8.10;66.40
81222;DHT22;70691;52.492;13.420;2023-11-18T02:38:31;8.30;65.40
81222;DHT22;70691;52.492;13.420;2023-11-18T02:40:59;8.20;65.50
81222;DHT22;70691;52.492;13.420;2023-11-18T02:43:26;7.90;66.90
81222;DHT22;70691;52.492;13.420;2023-11-18T02:45:54;7.90;67.40
81222;DHT22;70691;52.492;13.420;2023-11-18T02:48:22;8.10;66.60
81222;DHT22;70691;52.492;13.420;2023-11-18T02:50:49;8.00;66.50
81222;DHT22;70691;52.492;13.420;2023-11-18T02:53:14;8.10;66.10
81222;DHT22;70691;52.492;13.420;2023-11-18T02:55:40;7.90;67.20
81222;DHT22;70691;52.492;13.420;2023-11-18T02:58:06;7.70;68.30
81222;DHT22;70691;52.492;13.420;2023-11-18T03:00:33;7.60;68.70
81222;DHT22;70691;52.492;13.420;2023-11-18T03:02:59;7.70;68.50
81222;DHT22;70691;52.492;13.420;2023-11-18T03:05:24;7.80;68.00
81222;DHT22;70691;52.492;13.420;2023-11-18T03:07:52;7.80;68.40
81222;DHT22;70691;52.492;13.420;2023-11-18T03:10:21;7.90;67.60
81222;DHT22;70691;52.492;13.420;2023-11-18T03:12:53;7.80;68.00
81222;DHT22;70691;52.492;13.420;2023-11-18T03:15:20;7.80;68.20
81222;DHT22;70691;52.492;13.420;2023-11-18T03:17:47;7.90;67.80
81222;DHT22;70691;52.492;13.420;2023-11-18T03:20:17;8.20;66.10
81222;DHT22;70691;52.492;13.420;2023-11-18T03:22:44;8.10;65.80
81222;DHT22;70691;52.492;13.420;2023-11-18T03:25:13;8.10;65.80
81222;DHT22;70691;52.492;13.420;2023-11-18T03:27:39;8.00;66.30
81222;DHT22;70691;52.492;13.420;2023-11-18T03:30:06;8.00;66.40
81222;DHT22;70691;52.492;13.420;2023-11-18T03:32:32;8.00;66.50
81222;DHT22;70691;52.492;13.420;2023-11-18T03:34:58;7.90;67.10
81222;DHT22;70691;52.492;13.420;2023-11-18T03:37:26;7.80;67.40
81222;DHT22;70691;52.492;13.420;2023-11-18T03:39:52;7.60;68.20
81222;DHT22;70691;52.492;13.420;2023-11-18T03:42:18;7.60;68.20
81222;DHT22;70691;52.492;13.420;2023-11-18T03:44:44;7.60;68.80
81222;DHT22;70691;52.492;13.420;2023-11-18T03:47:13;7.60;68.70
81222;DHT22;70691;52.492;13.420;2023-11-18T03:49:40;7.60;68.80
81222;DHT22;70691;52.492;13.420;2023-11-18T03:52:06;7.70;68.60
81222;DHT22;70691;52.492;13.420;2023-11-18T03:54:31;7.70;68.30
81222;DHT22;70691;52.492;13.420;2023-11-18T03:56:57;7.80;67.40
81222;DHT22;70691;52.492;13.420;2023-11-18T04:02:45;8.00;66.70
81222;DHT22;70691;52.492;13.420;2023-11-18T04:05:11;7.80;67.10
81222;DHT22;70691;52.492;13.420;2023-11-18T04:07:37;7.80;67.50
81222;DHT22;70691;52.492;13.420;2023-11-18T04:10:04;7.90;67.00
81222;DHT22;70691;52.492;13.420;2023-11-18T04:12:32;7.80;67.80
81222;DHT22;70691;52.492;13.420;2023-11-18T04:14:58;7.80;67.60
81222;DHT22;70691;52.492;13.420;2023-11-18T04:17:24;7.70;67.20
81222;DHT22;70691;52.492;13.420;2023-11-18T04:19:53;7.80;67.30
81222;DHT22;70691;52.492;13.420;2023-11-18T04:22:21;7.90;66.90
81222;DHT22;70691;52.492;13.420;2023-11-18T04:24:47;7.80;67.00
81222;DHT22;70691;52.492;13.420;2023-11-18T04:27:13;7.70;67.80
81222;DHT22;70691;52.492;13.420;2023-11-18T04:29:38;7.70;67.80
81222;DHT22;70691;52.492;13.420;2023-11-18T04:32:06;7.70;67.70
81222;DHT22;70691;52.492;13.420;2023-11-18T04:34:35;7.70;68.30
81222;DHT22;70691;52.492;13.420;2023-11-18T04:37:02;7.60;68.40
81222;DHT22;70691;52.492;13.420;2023-11-18T04:39:28;7.60;68.60
81222;DHT22;70691;52.492;13.420;2023-11-18T04:41:55;7.70;67.90
81222;DHT22;70691;52.492;13.420;2023-11-18T04:44:22;7.80;67.10
81222;DHT22;70691;52.492;13.420;2023-11-18T04:46:47;7.70;68.20
81222;DHT22;70691;52.492;13.420;2023-11-18T04:49:13;7.60;68.60
81222;DHT22;70691;52.492;13.420;2023-11-18T04:51:39;7.60;68.00
81222;DHT22;70691;52.492;13.420;2023-11-18T04:54:05;7.70;68.30
81222;DHT22;70691;52.492;13.420;2023-11-18T04:56:33;7.80;67.80
81222;DHT22;70691;52.492;13.420;2023-11-18T04:59:02;7.70;68.10
81222;DHT22;70691;52.492;13.420;2023-11-18T05:01:27;7.60;68.60
81222;DHT22;70691;52.492;13.420;2023-11-18T05:03:53;7.90;67.10
81222;DHT22;70691;52.492;13.420;2023-11-18T05:06:19;7.80;67.70
81222;DHT22;70691;52.492;13.420;2023-11-18T05:08:45;7.70;68.40
81222;DHT22;70691;52.492;13.420;2023-11-18T05:11:11;7.80;67.60
81222;DHT22;70691;52.492;13.420;2023-11-18T05:13:38;7.80;67.50
81222;DHT22;70691;52.492;13.420;2023-11-18T05:16:05;7.60;68.20
81222;DHT22;70691;52.492;13.420;2023-11-18T05:18:31;7.80;67.90
81222;DHT22;70691;52.492;13.420;2023-11-18T05:21:01;7.70;68.40
81222;DHT22;70691;52.492;13.420;2023-11-18T05:23:27;7.50;69.10
81222;DHT22;70691;52.492;13.420;2023-11-18T05:25:55;7.50;69.30
81222;DHT22;70691;52.492;13.420;2023-11-18T05:28:22;7.60;69.20
81222;DHT22;70691;52.492;13.420;2023-11-18T05:30:48;7.60;68.60
81222;DHT22;70691;52.492;13.420;2023-11-18T05:33:13;7.70;68.60
81222;DHT22;70691;52.492;13.420;2023-11-18T05:35:43;7.70;68.40
81222;DHT22;70691;52.492;13.420;2023-11-18T05:38:15;7.80;68.20
81222;DHT22;70691;52.492;13.420;2023-11-18T05:40:49;7.80;68.20
81222;DHT22;70691;52.492;13.420;2023-11-18T05:43:26;7.80;68.10
81222;DHT22;70691;52.492;13.420;2023-11-18T05:45:55;7.90;67.50
81222;DHT22;70691;52.492;13.420;2023-11-18T05:48:44;8.00;67.00
81222;DHT22;70691;52.492;13.420;2023-11-18T05:51:10;8.10;66.30
81222;DHT22;70691;52.492;13.420;2023-11-18T05:53:40;7.90;66.80
81222;DHT22;70691;52.492;13.420;2023-11-18T05:56:07;7.90;66.90
81222;DHT22;70691;52.492;13.420;2023-11-18T05:58:33;7.70;67.60
81222;DHT22;70691;52.492;13.420;2023-11-18T06:00:59;7.60;68.60
81222;DHT22;70691;52.492;13.420;2023-11-18T06:03:25;7.60;68.80
81222;DHT22;70691;52.492;13.420;2023-11-18T06:05:52;7.60;68.40
81222;DHT22;70691;52.492;13.420;2023-11-18T06:08:17;7.80;67.80
81222;DHT22;70691;52.492;13.420;2023-11-18T06:10:43;7.70;68.00
81222;DHT22;70691;52.492;13.420;2023-11-18T06:13:10;7.60;68.00
81222;DHT22;70691;52.492;13.420;2023-11-18T06:15:38;7.60;68.40
81222;DHT22;70691;52.492;13.420;2023-11-18T06:18:04;7.60;68.20
81222;DHT22;70691;52.492;13.420;2023-11-18T06:20:30;7.60;68.50
81222;DHT22;70691;52.492;13.420;2023-11-18T06:22:58;7.50;68.90
81222;DHT22;70691;52.492;13.420;2023-11-18T06:25:24;7.60;68.70
81222;DHT22;70691;52.492;13.420;2023-11-18T06:27:51;7.60;67.80
81222;DHT22;70691;52.492;13.420;2023-11-18T06:30:18;7.60;67.80
81222;DHT22;70691;52.492;13.420;2023-11-18T06:32:45;7.60;69.50
81222;DHT22;70691;52.492;13.420;2023-11-18T06:35:12;7.90;67.00
81222;DHT22;70691;52.492;13.420;2023-11-18T06:37:40;7.70;67.30
81222;DHT22;70691;52.492;13.420;2023-11-18T06:40:06;7.70;67.80
81222;DHT22;70691;52.492;13.420;2023-11-18T06:42:42;7.60;68.10
81222;DHT22;70691;52.492;13.420;2023-11-18T06:45:08;7.60;68.50
81222;DHT22;70691;52.492;13.420;2023-11-18T06:47:35;7.70;67.80
81222;DHT22;70691;52.492;13.420;2023-11-18T06:50:02;7.70;67.70
81222;DHT22;70691;52.492;13.420;2023-11-18T06:52:27;7.60;67.90
81222;DHT22;70691;52.492;13.420;2023-11-18T06:54:54;7.60;68.10
81222;DHT22;70691;52.492;13.420;2023-11-18T06:57:20;7.60;68.10
81222;DHT22;70691;52.492;13.420;2023-11-18T06:59:47;7.70;67.90
81222;DHT22;70691;52.492;13.420;2023-11-18T07:02:14;7.70;67.70
81222;DHT22;70691;52.492;13.420;2023-11-18T07:04:40;7.80;67.30
81222;DHT22;70691;52.492;13.420;2023-11-18T07:07:06;7.80;67.00
81222;DHT22;70691;52.492;13.420;2023-11-18T07:09:34;7.70;67.30
81222;DHT22;70691;52.492;13.420;2023-11-18T07:12:02;7.80;67.20
81222;DHT22;70691;52.492;13.420;2023-11-18T07:14:29;7.80;66.90
81222;DHT22;70691;52.492;13.420;2023-11-18T07:16:55;7.70;67.50
81222;DHT22;70691;52.492;13.420;2023-11-18T07:19:20;7.70;67.40
81222;DHT22;70691;52.492;13.420;2023-11-18T07:21:49;7.70;67.40
81222;DHT22;70691;52.492;13.420;2023-11-18T07:24:16;7.70;67.40
81222;DHT22;70691;52.492;13.420;2023-11-18T07:26:42;7.80;67.10
81222;DHT22;70691;52.492;13.420;2023-11-18T07:29:09;7.80;67.10
81222;DHT22;70691;52.492;13.420;2023-11-18T07:31:35;7.80;66.60
81222;DHT22;70691;52.492;13.420;2023-11-18T07:34:04;7.90;66.90
81222;DHT22;70691;52.492;13.420;2023-11-18T07:36:31;8.10;66.10
81222;DHT22;70691;52.492;13.420;2023-11-18T07:38:57;8.10;65.80
81222;DHT22;70691;52.492;13.420;2023-11-18T07:41:27;8.10;65.60
81222;DHT22;70691;52.492;13.420;2023-11-18T07:43:55;8.00;65.70
81222;DHT22;70691;52.492;13.420;2023-11-18T07:46:25;8.10;65.60
81222;DHT22;70691;52.492;13.420;2023-11-18T07:48:51;8.40;64.30
81222;DHT22;70691;52.492;13.420;2023-11-18T07:51:20;8.40;64.30
81222;DHT22;70691;52.492;13.420;2023-11-18T07:53:50;8.40;65.30
81222;DHT22;70691;52.492;13.420;2023-11-18T07:56:16;8.20;65.10
81222;DHT22;70691;52.492;13.420;2023-11-18T07:58:42;8.00;65.80
81222;DHT22;70691;52.492;13.420;2023-11-18T08:01:11;8.10;65.20
81222;DHT22;70691;52.492;13.420;2023-11-18T08:03:37;8.00;65.40
81222;DHT22;70691;52.492;13.420;2023-11-18T08:06:04;8.00;65.70
81222;DHT22;70691;52.492;13.420;2023-11-18T08:08:35;7.90;66.40
81222;DHT22;70691;52.492;13.420;2023-11-18T08:11:05;7.80;66.70
81222;DHT22;70691;52.492;13.420;2023-11-18T08:13:31;7.90;66.10
81222;DHT22;70691;52.492;13.420;2023-11-18T08:15:56;7.90;65.80
81222;DHT22;70691;52.492;13.420;2023-11-18T08:18:25;7.90;65.90
81222;DHT22;70691;52.492;13.420;2023-11-18T08:20:53;7.80;66.40
81222;DHT22;70691;52.492;13.420;2023-11-18T08:23:18;7.70;67.20
81222;DHT22;70691;52.492;13.420;2023-11-18T08:25:44;7.70;67.50
81222;DHT22;70691;52.492;13.420;2023-11-18T08:28:11;7.90;66.10
81222;DHT22;70691;52.492;13.420;2023-11-18T08:30:39;8.00;66.00
81222;DHT22;70691;52.492;13.420;2023-11-18T08:33:05;7.90;67.40
81222;DHT22;70691;52.492;13.420;2023-11-18T08:35:37;7.90;67.10
81222;DHT22;70691;52.492;13.420;2023-11-18T08:38:03;8.00;66.60
81222;DHT22;70691;52.492;13.420;2023-11-18T08:40:30;8.10;66.00
81222;DHT22;70691;52.492;13.420;2023-11-18T08:42:55;8.20;65.50
81222;DHT22;70691;52.492;13.420;2023-11-18T08:45:22;8.30;65.00
81222;DHT22;70691;52.492;13.420;2023-11-18T08:47:52;8.30;65.00
81222;DHT22;70691;52.492;13.420;2023-11-18T08:50:18;8.60;62.90
81222;DHT22;70691;52.492;13.420;2023-11-18T08:52:47;8.60;62.70
81222;DHT22;70691;52.492;13.420;2023-11-18T08:55:14;8.60;62.90
81222;DHT22;70691;52.492;13.420;2023-11-18T08:57:50;8.50;63.40
81222;DHT22;70691;52.492;13.420;2023-11-18T09:00:39;8.40;63.90
81222;DHT22;70691;52.492;13.420;2023-11-18T09:03:12;8.50;64.50
81222;DHT22;70691;52.492;13.420;2023-11-18T09:05:46;8.50;63.80
81222;DHT22;70691;52.492;13.420;2023-11-18T09:08:35;8.60;63.30
81222;DHT22;70691;52.492;13.420;2023-11-18T09:11:05;8.60;63.10
81222;DHT22;70691;52.492;13.420;2023-11-18T09:13:32;8.70;62.80
81222;DHT22;70691;52.492;13.420;2023-11-18T09:16:02;8.80;62.20
81222;DHT22;70691;52.492;13.420;2023-11-18T09:18:29;8.90;61.60
81222;DHT22;70691;52.492;13.420;2023-11-18T09:21:03;9.00;61.40
81222;DHT22;70691;52.492;13.420;2023-11-18T09:23:31;8.80;62.00
81222;DHT22;70691;52.492;13.420;2023-11-18T09:25:57;8.80;62.10
81222;DHT22;70691;52.492;13.420;2023-11-18T09:28:24;8.90;62.40
81222;DHT22;70691;52.492;13.420;2023-11-18T09:30:50;9.00;62.20
81222;DHT22;70691;52.492;13.420;2023-11-18T09:33:22;9.10;62.30
81222;DHT22;70691;52.492;13.420;2023-11-18T09:35:56;9.20;60.90
81222;DHT22;70691;52.492;13.420;2023-11-18T09:38:32;9.20;60.90
81222;DHT22;70691;52.492;13.420;2023-11-18T09:40:59;9.40;59.90
81222;DHT22;70691;52.492;13.420;2023-11-18T09:43:33;9.40;59.60
81222;DHT22;70691;52.492;13.420;2023-11-18T09:46:06;9.40;59.30
81222;DHT22;70691;52.492;13.420;2023-11-18T09:48:46;9.50;58.00
81222;DHT22;70691;52.492;13.420;2023-11-18T09:51:31;9.50;58.10
81222;DHT22;70691;52.492;13.420;2023-11-18T09:54:05;9.40;58.70
81222;DHT22;70691;52.492;13.420;2023-11-18T09:56:44;9.50;57.90
81222;DHT22;70691;52.492;13.420;2023-11-18T09:59:25;9.50;57.80
81222;DHT22;70691;52.492;13.420;2023-11-18T10:01:57;9.30;59.30
81222;DHT22;70691;52.492;13.420;2023-11-18T10:04:27;9.40;58.60
81222;DHT22;70691;52.492;13.420;2023-11-18T10:06:53;9.60;57.90
81222;DHT22;70691;52.492;13.420;2023-11-18T10:09:20;9.30;58.30
81222;DHT22;70691;52.492;13.420;2023-11-18T10:11:54;9.20;59.20
81222;DHT22;70691;52.492;13.420;2023-11-18T10:14:31;9.20;60.50
81222;DHT22;70691;52.492;13.420;2023-11-18T10:16:57;9.10;59.80
81222;DHT22;70691;52.492;13.420;2023-11-18T10:19:23;9.20;60.20
81222;DHT22;70691;52.492;13.420;2023-11-18T10:21:51;9.30;60.10
81222;DHT22;70691;52.492;13.420;2023-11-18T10:24:17;9.40;59.60
81222;DHT22;70691;52.492;13.420;2023-11-18T10:26:55;9.50;59.00
81222;DHT22;70691;52.492;13.420;2023-11-18T10:29:26;9.70;58.30
81222;DHT22;70691;52.492;13.420;2023-11-18T10:32:04;9.80;57.70
81222;DHT22;70691;52.492;13.420;2023-11-18T10:34:34;10.00;57.00
81222;DHT22;70691;52.492;13.420;2023-11-18T10:37:01;10.10;56.80
81222;DHT22;70691;52.492;13.420;2023-11-18T10:39:32;10.30;56.10
81222;DHT22;70691;52.492;13.420;2023-11-18T10:42:01;10.40;55.80
81222;DHT22;70691;52.492;13.420;2023-11-18T10:44:28;10.40;55.90
81222;DHT22;70691;52.492;13.420;2023-11-18T10:46:55;10.50;56.10
81222;DHT22;70691;52.492;13.420;2023-11-18T10:49:28;10.50;56.00
81222;DHT22;70691;52.492;13.420;2023-11-18T10:51:55;10.60;55.80
81222;DHT22;70691;52.492;13.420;2023-11-18T10:54:22;10.70;55.30
81222;DHT22;70691;52.492;13.420;2023-11-18T10:56:51;10.70;55.10
81222;DHT22;70691;52.492;13.420;2023-11-18T10:59:22;10.80;55.00
81222;DHT22;70691;52.492;13.420;2023-11-18T11:01:51;10.70;54.70
81222;DHT22;70691;52.492;13.420;2023-11-18T11:04:17;10.70;54.80
81222;DHT22;70691;52.492;13.420;2023-11-18T11:06:47;10.70;54.90
81222;DHT22;70691;52.492;13.420;2023-11-18T11:09:22;10.70;54.70
81222;DHT22;70691;52.492;13.420;2023-11-18T11:12:07;10.70;54.70
81222;DHT22;70691;52.492;13.420;2023-11-18T11:14:46;10.60;55.20
81222;DHT22;70691;52.492;13.420;2023-11-18T11:17:16;10.50;55.60
81222;DHT22;70691;52.492;13.420;2023-11-18T11:19:55;10.50;55.60
81222;DHT22;70691;52.492;13.420;2023-11-18T11:22:34;10.60;55.50
81222;DHT22;70691;52.492;13.420;2023-11-18T11:25:14;10.80;55.00
81222;DHT22;70691;52.492;13.420;2023-11-18T11:28:08;10.80;54.80
81222;DHT22;70691;52.492;13.420;2023-11-18T11:30:46;11.00;54.20
81222;DHT22;70691;52.492;13.420;2023-11-18T11:33:34;11.00;54.10
81222;DHT22;70691;52.492;13.420;2023-11-18T11:36:11;11.00;54.10
81222;DHT22;70691;52.492;13.420;2023-11-18T11:38:37;11.00;54.10
81222;DHT22;70691;52.492;13.420;2023-11-18T11:41:04;11.00;54.00
81222;DHT22;70691;52.492;13.420;2023-11-18T11:43:32;10.90;54.20
81222;DHT22;70691;52.492;13.420;2023-11-18T11:46:03;11.00;54.10
81222;DHT22;70691;52.492;13.420;2023-11-18T11:48:38;11.00;53.80
81222;DHT22;70691;52.492;13.420;2023-11-18T11:53:52;11.00;53.90
81222;DHT22;70691;52.492;13.420;2023-11-18T11:56:18;10.90;53.90
81222;DHT22;70691;52.492;13.420;2023-11-18T11:58:49;10.80;54.60
81222;DHT22;70691;52.492;13.420;2023-11-18T12:01:26;10.60;55.20
81222;DHT22;70691;52.492;13.420;2023-11-18T12:03:59;10.60;55.60
81222;DHT22;70691;52.492;13.420;2023-11-18T12:06:32;10.60;55.70
81222;DHT22;70691;52.492;13.420;2023-11-18T12:09:00;10.50;56.10
81222;DHT22;70691;52.492;13.420;2023-11-18T12:11:33;10.50;56.10
81222;DHT22;70691;52.492;13.420;2023-11-18T12:14:07;10.40;56.40
81222;DHT22;70691;52.492;13.420;2023-11-18T12:19:36;10.40;56.10
81222;DHT22;70691;52.492;13.420;2023-11-18T12:22:16;10.40;56.20
81222;DHT22;70691;52.492;13.420;2023-11-18T12:27:44;10.20;56.40
81222;DHT22;70691;52.492;13.420;2023-11-18T12:33:00;10.00;57.30
81222;DHT22;70691;52.492;13.420;2023-11-18T12:46:48;10.00;55.90
81222;DHT22;70691;52.492;13.420;2023-11-18T12:49:44;10.10;55.40
81222;DHT22;70691;52.492;13.420;2023-11-18T12:52:11;10.00;55.50
81222;DHT22;70691;52.492;13.420;2023-11-18T12:54:40;9.90;55.70
81222;DHT22;70691;52.492;13.420;2023-11-18T12:57:09;9.80;55.80
81222;DHT22;70691;52.492;13.420;2023-11-18T12:59:37;9.70;56.20
81222;DHT22;70691;52.492;13.420;2023-11-18T13:02:12;9.70;56.00
81222;DHT22;70691;52.492;13.420;2023-11-18T13:04:46;9.80;56.40
81222;DHT22;70691;52.492;13.420;2023-11-18T13:07:16;9.80;56.10
81222;DHT22;70691;52.492;13.420;2023-11-18T13:09:47;9.80;55.90
81222;DHT22;70691;52.492;13.420;2023-11-18T13:12:13;9.90;55.60
81222;DHT22;70691;52.492;13.420;2023-11-18T13:14:41;10.00;55.00
81222;DHT22;70691;52.492;13.420;2023-11-18T13:17:11;10.10;55.10
81222;DHT22;70691;52.492;13.420;2023-11-18T13:19:38;10.20;54.40
81222;DHT22;70691;52.492;13.420;2023-11-18T13:22:06;10.30;53.60
81222;DHT22;70691;52.492;13.420;2023-11-18T13:24:38;10.30;53.10
81222;DHT22;70691;52.492;13.420;2023-11-18T13:27:13;10.20;53.40
81222;DHT22;70691;52.492;13.420;2023-11-18T13:29:43;10.20;53.60
81222;DHT22;70691;52.492;13.420;2023-11-18T13:32:11;10.20;53.70
81222;DHT22;70691;52.492;13.420;2023-11-18T13:34:39;10.30;53.90
81222;DHT22;70691;52.492;13.420;2023-11-18T13:37:07;10.40;53.40
81222;DHT22;70691;52.492;13.420;2023-11-18T13:39:34;10.50;53.50
81222;DHT22;70691;52.492;13.420;2023-11-18T13:42:24;10.60;53.00
81222;DHT22;70691;52.492;13.420;2023-11-18T13:44:53;10.60;52.50
81222;DHT22;70691;52.492;13.420;2023-11-18T13:47:26;10.60;52.10
81222;DHT22;70691;52.492;13.420;2023-11-18T13:49:54;10.60;52.10
81222;DHT22;70691;52.492;13.420;2023-11-18T13:52:20;10.50;51.90
81222;DHT22;70691;52.492;13.420;2023-11-18T13:54:47;10.50;52.30
81222;DHT22;70691;52.492;13.420;2023-11-18T13:57:13;10.30;52.40
81222;DHT22;70691;52.492;13.420;2023-11-18T13:59:39;10.10;53.20
81222;DHT22;70691;52.492;13.420;2023-11-18T14:02:05;9.90;53.90
81222;DHT22;70691;52.492;13.420;2023-11-18T14:04:33;9.70;54.50
81222;DHT22;70691;52.492;13.420;2023-11-18T14:07:00;9.60;54.70
81222;DHT22;70691;52.492;13.420;2023-11-18T14:09:29;9.50;55.10
81222;DHT22;70691;52.492;13.420;2023-11-18T14:11:57;9.30;55.90
81222;DHT22;70691;52.492;13.420;2023-11-18T14:14:23;9.10;56.60
81222;DHT22;70691;52.492;13.420;2023-11-18T14:16:53;9.00;57.40
81222;DHT22;70691;52.492;13.420;2023-11-18T14:19:23;8.90;57.70
81222;DHT22;70691;52.492;13.420;2023-11-18T14:21:53;8.80;57.80
81222;DHT22;70691;52.492;13.420;2023-11-18T14:24:19;8.70;58.30
81222;DHT22;70691;52.492;13.420;2023-11-18T14:26:45;8.60;58.70
81222;DHT22;70691;52.492;13.420;2023-11-18T14:29:11;8.50;58.90
81222;DHT22;70691;52.492;13.420;2023-11-18T14:31:39;8.50;59.40
81222;DHT22;70691;52.492;13.420;2023-11-18T14:34:05;8.60;58.90
81222;DHT22;70691;52.492;13.420;2023-11-18T14:36:31;8.50;58.90
81222;DHT22;70691;52.492;13.420;2023-11-18T14:38:57;8.50;59.20
81222;DHT22;70691;52.492;13.420;2023-11-18T14:41:25;8.40;59.60
81222;DHT22;70691;52.492;13.420;2023-11-18T14:43:52;8.30;60.10
81222;DHT22;70691;52.492;13.420;2023-11-18T14:46:18;8.30;60.50
81222;DHT22;70691;52.492;13.420;2023-11-18T14:48:44;8.30;60.70
81222;DHT22;70691;52.492;13.420;2023-11-18T14:51:10;8.30;60.70
81222;DHT22;70691;52.492;13.420;2023-11-18T14:53:37;8.30;60.80
81222;DHT22;70691;52.492;13.420;2023-11-18T14:56:03;8.40;60.60
81222;DHT22;70691;52.492;13.420;2023-11-18T14:58:34;8.40;60.90
81222;DHT22;70691;52.492;13.420;2023-11-18T15:00:59;8.60;60.70
81222;DHT22;70691;52.492;13.420;2023-11-18T15:03:26;8.60;60.60
81222;DHT22;70691;52.492;13.420;2023-11-18T15:05:51;8.60;60.50
81222;DHT22;70691;52.492;13.420;2023-11-18T15:08:17;8.60;60.40
81222;DHT22;70691;52.492;13.420;2023-11-18T15:10:43;8.70;60.40
81222;DHT22;70691;52.492;13.420;2023-11-18T15:13:10;8.70;60.60
81222;DHT22;70691;52.492;13.420;2023-11-18T15:15:41;8.70;60.50
81222;DHT22;70691;52.492;13.420;2023-11-18T15:18:07;8.70;60.60
81222;DHT22;70691;52.492;13.420;2023-11-18T15:20:46;8.70;61.00
81222;DHT22;70691;52.492;13.420;2023-11-18T15:23:13;8.70;61.10
81222;DHT22;70691;52.492;13.420;2023-11-18T15:25:39;8.70;61.30
81222;DHT22;70691;52.492;13.420;2023-11-18T15:28:06;8.80;61.10
81222;DHT22;70691;52.492;13.420;2023-11-18T15:30:36;8.80;60.80
81222;DHT22;70691;52.492;13.420;2023-11-18T15:33:02;8.70;60.90
81222;DHT22;70691;52.492;13.420;2023-11-18T15:35:27;8.70;61.10
81222;DHT22;70691;52.492;13.420;2023-11-18T15:37:54;8.80;60.70
81222;DHT22;70691;52.492;13.420;2023-11-18T15:40:20;8.80;60.40
81222;DHT22;70691;52.492;13.420;2023-11-18T15:42:48;8.90;60.20
81222;DHT22;70691;52.492;13.420;2023-11-18T15:45:21;8.90;60.00
81222;DHT22;70691;52.492;13.420;2023-11-18T15:47:49;8.90;59.90
81222;DHT22;70691;52.492;13.420;2023-11-18T15:50:16;8.80;60.20
81222;DHT22;70691;52.492;13.420;2023-11-18T15:52:50;8.90;59.90
81222;DHT22;70691;52.492;13.420;2023-11-18T15:55:19;8.80;60.00
81222;DHT22;70691;52.492;13.420;2023-11-18T15:57:48;8.90;59.80
81222;DHT22;70691;52.492;13.420;2023-11-18T16:00:27;8.80;59.50
81222;DHT22;70691;52.492;13.420;2023-11-18T16:02:57;8.90;59.70
81222;DHT22;70691;52.492;13.420;2023-11-18T16:05:24;8.90;59.80
81222;DHT22;70691;52.492;13.420;2023-11-18T16:07:54;8.80;59.70
81222;DHT22;70691;52.492;13.420;2023-11-18T16:10:22;8.90;59.80